Gracie Claire — WDC3485 — position and weather

sailwx.info

Track history (hours):
 
Tides and Currents Weather Stations Pressure Air Temp Water Temp Dewpoint Dewpoint Depression Visibility Wind Speed Wind Dir Waves Ship Positions

Gracie Claire

Owner: Triple S Marine, LLC, Morgan City, LA. More information available from US FCC via Universal Licensing System and Coast Guard Vessel Documentation Center.

Last reported at 2017-Aug-21 10:00 UTC. Time now 2017-Nov-24 12:49 UTC.
Position N 29°34' W 090°30'.
Warning: this ship's position is months out of date.

Length 13 m; draft 2 m.

Type: Towing. MMSI: 367008680.

Date/timePositionNaut miles runAvg speedWind from/ knotsBaromVisibWave heightAir tempDewpointWater temp
2017-Aug-21 10:00N 29°34' W 090°30'3 5.8
2017-Aug-21 09:30N 29°34' W 090°34'3 5.3
2017-Aug-21 09:00N 29°35' W 090°37'2 4.7
2017-Aug-21 08:30N 29°36' W 090°39'2 3.3
2017-Aug-21 08:00N 29°36' W 090°41'2 4.0
2017-Aug-21 07:30N 29°35' W 090°43'3 5.7
2017-Aug-21 07:01N 29°33' W 090°45'3 6.0
2017-Aug-21 06:30N 29°32' W 090°48'64 2.8
2017-Aug-20 07:37N 29°50' W 091°60'1 5.5
2017-Aug-20 07:31N 29°50' W 092°00'3 5.6
2017-Aug-20 07:01N 29°49' W 092°03'3 5.5
2017-Aug-20 06:31N 29°48' W 092°06'3 5.1
2017-Aug-20 06:01N 29°47' W 092°09'3 5.1
2017-Aug-20 05:31N 29°47' W 092°12'1 2.9
2017-Aug-20 05:01N 29°48' W 092°13'0 0.3
2017-Aug-20 04:30N 29°48' W 092°14'3 5.8
2017-Aug-20 04:01N 29°49' W 092°17'2 3.0
2017-Aug-20 03:30N 29°50' W 092°18'3 0.1
2017-Aug-18 04:39N 29°51' W 092°21'0 3.2
2017-Aug-18 04:30N 29°51' W 092°21'1 1.5
2017-Aug-18 03:46N 29°50' W 092°19'0 1.0
2017-Aug-18 03:20N 29°50' W 092°19'1 3.2
2017-Aug-18 03:00N 29°50' W 092°18'2 3.5
2017-Aug-18 02:30N 29°49' W 092°16'2 3.4
2017-Aug-18 02:01N 29°48' W 092°15'2 3.3
2017-Aug-18 01:30N 29°47' W 092°13'1 2.9
2017-Aug-18 01:00N 29°47' W 092°11'2 3.0
2017-Aug-18 00:30N 29°47' W 092°10'2 4.3
2017-Aug-18 00:01N 29°47' W 092°07'3 5.2
2017-Aug-17 23:30N 29°48' W 092°04'3 4.9
2017-Aug-17 22:53N 29°49' W 092°01'64 3.9
2017-Aug-17 06:40N 29°32' W 090°50'1 4.7
2017-Aug-17 06:30N 29°32' W 090°49'2 4.3
2017-Aug-17 06:00N 29°32' W 090°47'2 3.4
2017-Aug-17 05:30N 29°33' W 090°45'1 2.8
2017-Aug-17 05:00N 29°34' W 090°44'1 2.6
2017-Aug-17 04:30N 29°35' W 090°43'2 3.9
2017-Aug-17 04:00N 29°37' W 090°42'2 3.7
2017-Aug-17 03:31N 29°36' W 090°40'1 2.9
2017-Aug-17 03:00N 29°36' W 090°39'2 3.8
2017-Aug-17 02:31N 29°35' W 090°37'2 3.0
2017-Aug-17 02:00N 29°35' W 090°35'2 3.2
2017-Aug-17 01:30N 29°34' W 090°34'2 3.3
2017-Aug-17 01:00N 29°34' W 090°32'0 0.7
2017-Aug-17 00:30N 29°33' W 090°32'0 0.0
2017-Aug-16 23:58N 29°33' W 090°32'0 0.0
2017-Aug-16 22:28N 29°33' W 090°32'0 0.0
2017-Aug-16 20:48N 29°33' W 090°32'0 0.0
2017-Aug-16 20:14N 29°33' W 090°32'0 0.0
2017-Aug-16 19:48N 29°33' W 090°32'0 0.0
2017-Aug-16 19:19N 29°33' W 090°32'0 0.0
2017-Aug-16 18:59N 29°33' W 090°32'0 0.1
2017-Aug-16 18:14N 29°33' W 090°32'1 5.5
2017-Aug-16 18:00N 29°34' W 090°33'3 6.3
2017-Aug-16 17:30N 29°35' W 090°37'3 5.9
2017-Aug-16 17:00N 29°36' W 090°40'0 0.4
2017-Aug-16 16:30N 29°36' W 090°40'0 0.0
2017-Aug-16 16:00N 29°36' W 090°40'0 0.0
2017-Aug-16 15:30N 29°36' W 090°40'2 4.2
2017-Aug-16 15:01N 29°35' W 090°38'2 4.1
2017-Aug-16 14:30N 29°35' W 090°35'3 5.8
2017-Aug-16 14:00N 29°34' W 090°32'1 0.0
2017-Aug-16 01:26N 29°33' W 090°32'0 0.1
2017-Aug-16 00:59N 29°33' W 090°32'0 0.6
2017-Aug-16 00:30N 29°34' W 090°32'2 4.3
2017-Aug-16 00:00N 29°34' W 090°29'0 0.0
2017-Aug-14 00:34N 29°34' W 090°29'1 7.1
2017-Aug-14 00:24N 29°34' W 090°31'1 2.4
2017-Aug-14 00:00N 29°33' W 090°32'0 0.0
2017-Aug-13 16:31N 29°33' W 090°32'0 0.0
2017-Aug-13 16:30N 29°33' W 090°32'2 4.8
2017-Aug-13 15:59N 29°34' W 090°34'3 5.9
2017-Aug-13 15:30N 29°35' W 090°38'2 4.5
2017-Aug-13 15:00N 29°36' W 090°40'0 0.0
2017-Aug-13 14:30N 29°36' W 090°40'1 2.5
2017-Aug-13 14:00N 29°35' W 090°38'3 6.8
2017-Aug-13 13:30N 29°34' W 090°35'3 4.3
2017-Aug-13 12:50N 29°33' W 090°32'2 4.2
2017-Aug-13 12:21N 29°34' W 090°29'14 1.5
2017-Aug-13 03:04N 29°25' W 090°17'0 3.1
2017-Aug-13 03:00N 29°25' W 090°17'15 1.0
2017-Aug-12 12:09N 29°34' W 090°31'1 4.0
2017-Aug-12 12:00N 29°34' W 090°32'0 0.3
2017-Aug-12 11:29N 29°33' W 090°32'0 0.0
2017-Aug-12 11:00N 29°33' W 090°32'0 0.0
2017-Aug-12 10:30N 29°33' W 090°32'0 0.0
2017-Aug-12 10:00N 29°33' W 090°32'0 0.0
2017-Aug-12 09:30N 29°33' W 090°32'0 0.0
2017-Aug-12 09:00N 29°33' W 090°32'0 0.0
2017-Aug-12 08:27N 29°33' W 090°32'0 0.0
2017-Aug-12 07:59N 29°33' W 090°32'0 0.0
2017-Aug-12 07:29N 29°33' W 090°32'0 0.0
2017-Aug-12 07:00N 29°33' W 090°32'0 0.0
2017-Aug-12 06:30N 29°33' W 090°32'0 0.0
2017-Aug-12 06:00N 29°33' W 090°32'0 0.0
2017-Aug-12 05:29N 29°33' W 090°32'0 0.0
2017-Aug-12 05:00N 29°33' W 090°32'0 0.1
2017-Aug-12 04:29N 29°33' W 090°32'1 2.9
2017-Aug-12 04:00N 29°34' W 090°33'3 5.1
2017-Aug-12 03:30N 29°35' W 090°36'2 4.8
2017-Aug-12 03:00N 29°35' W 090°39'2 3.3
2017-Aug-12 02:30N 29°36' W 090°40'2 3.9
2017-Aug-12 02:00N 29°36' W 090°43'2 3.9
2017-Aug-12 01:30N 29°35' W 090°43'2 4.5
2017-Aug-12 01:00N 29°33' W 090°45'2 4.7
2017-Aug-12 00:30N 29°32' W 090°48'6 5.4
2017-Aug-11 23:25N 29°33' W 090°54'  
Track history (hours):
 
Tides and Currents Weather Stations Pressure Air Temp Water Temp Dewpoint Dewpoint Depression Visibility Wind Speed Wind Dir Waves Ship Positions

Gracie Claire

Owner: Triple S Marine, LLC, Morgan City, LA. More information available from US FCC via Universal Licensing System and Coast Guard Vessel Documentation Center.

Last reported at 2017-Aug-21 10:00 UTC. Time now 2017-Nov-24 12:49 UTC.
Position N 29°34' W 090°30'.
Warning: this ship's position is months out of date.

Length 13 m; draft 2 m.

Type: Towing. MMSI: 367008680.

Date/timePositionNaut miles runAvg speedWind from/ knotsBaromVisibWave heightAir tempDewpointWater temp
2017-Aug-21 10:00N 29°34' W 090°30'3 5.8
2017-Aug-21 09:30N 29°34' W 090°34'3 5.3
2017-Aug-21 09:00N 29°35' W 090°37'2 4.7
2017-Aug-21 08:30N 29°36' W 090°39'2 3.3
2017-Aug-21 08:00N 29°36' W 090°41'2 4.0
2017-Aug-21 07:30N 29°35' W 090°43'3 5.7
2017-Aug-21 07:01N 29°33' W 090°45'3 6.0
2017-Aug-21 06:30N 29°32' W 090°48'64 2.8
2017-Aug-20 07:37N 29°50' W 091°60'1 5.5
2017-Aug-20 07:31N 29°50' W 092°00'3 5.6
2017-Aug-20 07:01N 29°49' W 092°03'3 5.5
2017-Aug-20 06:31N 29°48' W 092°06'3 5.1
2017-Aug-20 06:01N 29°47' W 092°09'3 5.1
2017-Aug-20 05:31N 29°47' W 092°12'1 2.9
2017-Aug-20 05:01N 29°48' W 092°13'0 0.3
2017-Aug-20 04:30N 29°48' W 092°14'3 5.8
2017-Aug-20 04:01N 29°49' W 092°17'2 3.0
2017-Aug-20 03:30N 29°50' W 092°18'3 0.1
2017-Aug-18 04:39N 29°51' W 092°21'0 3.2
2017-Aug-18 04:30N 29°51' W 092°21'1 1.5
2017-Aug-18 03:46N 29°50' W 092°19'0 1.0
2017-Aug-18 03:20N 29°50' W 092°19'1 3.2
2017-Aug-18 03:00N 29°50' W 092°18'2 3.5
2017-Aug-18 02:30N 29°49' W 092°16'2 3.4
2017-Aug-18 02:01N 29°48' W 092°15'2 3.3
2017-Aug-18 01:30N 29°47' W 092°13'1 2.9
2017-Aug-18 01:00N 29°47' W 092°11'2 3.0
2017-Aug-18 00:30N 29°47' W 092°10'2 4.3
2017-Aug-18 00:01N 29°47' W 092°07'3 5.2
2017-Aug-17 23:30N 29°48' W 092°04'3 4.9
2017-Aug-17 22:53N 29°49' W 092°01'64 3.9
2017-Aug-17 06:40N 29°32' W 090°50'1 4.7
2017-Aug-17 06:30N 29°32' W 090°49'2 4.3
2017-Aug-17 06:00N 29°32' W 090°47'2 3.4
2017-Aug-17 05:30N 29°33' W 090°45'1 2.8
2017-Aug-17 05:00N 29°34' W 090°44'1 2.6
2017-Aug-17 04:30N 29°35' W 090°43'2 3.9
2017-Aug-17 04:00N 29°37' W 090°42'2 3.7
2017-Aug-17 03:31N 29°36' W 090°40'1 2.9
2017-Aug-17 03:00N 29°36' W 090°39'2 3.8
2017-Aug-17 02:31N 29°35' W 090°37'2 3.0
2017-Aug-17 02:00N 29°35' W 090°35'2 3.2
2017-Aug-17 01:30N 29°34' W 090°34'2 3.3
2017-Aug-17 01:00N 29°34' W 090°32'0 0.7
2017-Aug-17 00:30N 29°33' W 090°32'0 0.0
2017-Aug-16 23:58N 29°33' W 090°32'0 0.0
2017-Aug-16 22:28N 29°33' W 090°32'0 0.0
2017-Aug-16 20:48N 29°33' W 090°32'0 0.0
2017-Aug-16 20:14N 29°33' W 090°32'0 0.0
2017-Aug-16 19:48N 29°33' W 090°32'0 0.0
2017-Aug-16 19:19N 29°33' W 090°32'0 0.0
2017-Aug-16 18:59N 29°33' W 090°32'0 0.1
2017-Aug-16 18:14N 29°33' W 090°32'1 5.5
2017-Aug-16 18:00N 29°34' W 090°33'3 6.3
2017-Aug-16 17:30N 29°35' W 090°37'3 5.9
2017-Aug-16 17:00N 29°36' W 090°40'0 0.4
2017-Aug-16 16:30N 29°36' W 090°40'0 0.0
2017-Aug-16 16:00N 29°36' W 090°40'0 0.0
2017-Aug-16 15:30N 29°36' W 090°40'2 4.2
2017-Aug-16 15:01N 29°35' W 090°38'2 4.1
2017-Aug-16 14:30N 29°35' W 090°35'3 5.8
2017-Aug-16 14:00N 29°34' W 090°32'1 0.0
2017-Aug-16 01:26N 29°33' W 090°32'0 0.1
2017-Aug-16 00:59N 29°33' W 090°32'0 0.6
2017-Aug-16 00:30N 29°34' W 090°32'2 4.3
2017-Aug-16 00:00N 29°34' W 090°29'0 0.0
2017-Aug-14 00:34N 29°34' W 090°29'1 7.1
2017-Aug-14 00:24N 29°34' W 090°31'1 2.4
2017-Aug-14 00:00N 29°33' W 090°32'0 0.0
2017-Aug-13 16:31N 29°33' W 090°32'0 0.0
2017-Aug-13 16:30N 29°33' W 090°32'2 4.8
2017-Aug-13 15:59N 29°34' W 090°34'3 5.9
2017-Aug-13 15:30N 29°35' W 090°38'2 4.5
2017-Aug-13 15:00N 29°36' W 090°40'0 0.0
2017-Aug-13 14:30N 29°36' W 090°40'1 2.5
2017-Aug-13 14:00N 29°35' W 090°38'3 6.8
2017-Aug-13 13:30N 29°34' W 090°35'3 4.3
2017-Aug-13 12:50N 29°33' W 090°32'2 4.2
2017-Aug-13 12:21N 29°34' W 090°29'14 1.5
2017-Aug-13 03:04N 29°25' W 090°17'0 3.1
2017-Aug-13 03:00N 29°25' W 090°17'15 1.0
2017-Aug-12 12:09N 29°34' W 090°31'1 4.0
2017-Aug-12 12:00N 29°34' W 090°32'0 0.3
2017-Aug-12 11:29N 29°33' W 090°32'0 0.0
2017-Aug-12 11:00N 29°33' W 090°32'0 0.0
2017-Aug-12 10:30N 29°33' W 090°32'0 0.0
2017-Aug-12 10:00N 29°33' W 090°32'0 0.0
2017-Aug-12 09:30N 29°33' W 090°32'0 0.0
2017-Aug-12 09:00N 29°33' W 090°32'0 0.0
2017-Aug-12 08:27N 29°33' W 090°32'0 0.0
2017-Aug-12 07:59N 29°33' W 090°32'0 0.0
2017-Aug-12 07:29N 29°33' W 090°32'0 0.0
2017-Aug-12 07:00N 29°33' W 090°32'0 0.0
2017-Aug-12 06:30N 29°33' W 090°32'0 0.0
2017-Aug-12 06:00N 29°33' W 090°32'0 0.0
2017-Aug-12 05:29N 29°33' W 090°32'0 0.0
2017-Aug-12 05:00N 29°33' W 090°32'0 0.1
2017-Aug-12 04:29N 29°33' W 090°32'1 2.9
2017-Aug-12 04:00N 29°34' W 090°33'3 5.1
2017-Aug-12 03:30N 29°35' W 090°36'2 4.8
2017-Aug-12 03:00N 29°35' W 090°39'2 3.3
2017-Aug-12 02:30N 29°36' W 090°40'2 3.9
2017-Aug-12 02:00N 29°36' W 090°43'2 3.9
2017-Aug-12 01:30N 29°35' W 090°43'2 4.5
2017-Aug-12 01:00N 29°33' W 090°45'2 4.7
2017-Aug-12 00:30N 29°32' W 090°48'6 5.4
2017-Aug-11 23:25N 29°33' W 090°54'  

Dump ship's entire track history